Kezdőlap
METAR-TAF:

METAR-TAF

Repülőterek :

Dortmund, Németország

földrajzi szélesség: 51-31N, földrajzi hosszúság: 007-37E, magasság: 127 m

Jelenlegi meteorológiai megfigyelések

A jelentés 21 perccel ezelõtt készült, 16:20 UTC
Dél-délnyugati szél 16 kt
Hőmérséklet 8°C
Páratartalom 66%
Légköri nyomás 1004 hPa
Látótávolság 10 km, vagy több
Kevés felhő 4100 lábon

METAR: EDLW 151620Z 20016KT 9999 FEW041 08/02 Q1004

Idő: 17:41 (16:41 UTC)

Előrejelzés

A jelentés 5 órával és 41 perccel ezelõtt készült, 11:00 UTC
Az előrejelzés 15-én 12 óra UTC és 16-én 12 óra UTC között érvényes
Délnyugati szél 15 kt
Látótávolság 10 km, vagy több
felhőtlen 1500 m magasságban, és nincs gomolyfelhõ
15-én 12 óra UTC és 15-én 14 óra UTC között ideiglenes
Délnyugati szél 15 kt széllökések: 30 kt
15-én 20 óra UTC és 15-én 23 óra UTC között fokozatosan kialakuló
Déli szél 10 kt

TAF: EDLW 151100Z 1512/1612 23015KT CAVOK TEMPO 1512/1514 23015G30KT BECMG 1520/1523 18010KT

Meteorológiai megfigyelések és előrejelzések több, mint 4000 repülőtéren (METAR és TAF jelentéseket).

A térképen piros és sárga pontok jelzik az elérhető meteorológiai állomásokat.

Mozgassa az egeret a pont fölött, hogy megjelenjen az állomás neve.

Azután kattintson az időjárási megfigyelések és előrejelzések megtekintéséhez.

A térkép megváltoztatása: kattintson a fekete keresztel jelölt zöld gombra ráközelítéshez, a vonallal jelölt zöld gombra távolításhoz, vagy a zöld nyilakra a szomszédos térképek eléréséhez.


METAR-TAF: